sensor_id;sensor_type;location;lat;lon;timestamp;pressure;altitude;pressure_sealevel;temperature;humidity
3082;BME280;1551;51.046;7.010;2024-02-26T00:01:43;99106.31;;;9.64;61.02
3082;BME280;1551;51.046;7.010;2024-02-26T00:04:32;99114.91;;;9.62;62.12
3082;BME280;1551;51.046;7.010;2024-02-26T00:07:21;99115.31;;;9.48;62.55
3082;BME280;1551;51.046;7.010;2024-02-26T00:10:10;99103.56;;;9.43;63.52
3082;BME280;1551;51.046;7.010;2024-02-26T00:12:59;99110.84;;;9.55;64.75
3082;BME280;1551;51.046;7.010;2024-02-26T00:15:48;99114.81;;;9.65;64.00
3082;BME280;1551;51.046;7.010;2024-02-26T00:18:37;99116.50;;;9.64;64.33
3082;BME280;1551;51.046;7.010;2024-02-26T00:21:26;99123.16;;;9.70;64.81
3082;BME280;1551;51.046;7.010;2024-02-26T00:24:15;99112.03;;;9.71;65.50
3082;BME280;1551;51.046;7.010;2024-02-26T00:27:04;99110.41;;;9.68;66.31
3082;BME280;1551;51.046;7.010;2024-02-26T00:29:53;99117.22;;;9.69;66.84
3082;BME280;1551;51.046;7.010;2024-02-26T00:32:42;99108.66;;;9.70;67.26
3082;BME280;1551;51.046;7.010;2024-02-26T00:35:31;99105.38;;;9.67;68.66
3082;BME280;1551;51.046;7.010;2024-02-26T00:38:20;99102.91;;;9.64;68.43
3082;BME280;1551;51.046;7.010;2024-02-26T00:41:09;99089.56;;;9.56;67.69
3082;BME280;1551;51.046;7.010;2024-02-26T00:43:58;99098.84;;;9.58;67.17
3082;BME280;1551;51.046;7.010;2024-02-26T00:46:47;99093.75;;;9.58;67.25
3082;BME280;1551;51.046;7.010;2024-02-26T00:49:37;99092.84;;;9.59;67.17
3082;BME280;1551;51.046;7.010;2024-02-26T00:52:25;99098.00;;;9.58;66.57
3082;BME280;1551;51.046;7.010;2024-02-26T00:55:14;99089.56;;;9.56;66.14
3082;BME280;1551;51.046;7.010;2024-02-26T00:58:03;99087.84;;;9.56;67.58
3082;BME280;1551;51.046;7.010;2024-02-26T01:00:52;99091.28;;;9.55;66.54
3082;BME280;1551;51.046;7.010;2024-02-26T01:03:42;99087.78;;;9.58;67.11
3082;BME280;1551;51.046;7.010;2024-02-26T01:06:31;99091.13;;;9.60;66.28
3082;BME280;1551;51.046;7.010;2024-02-26T01:09:19;99081.91;;;9.56;67.17
3082;BME280;1551;51.046;7.010;2024-02-26T01:12:08;99088.81;;;9.52;66.81
3082;BME280;1551;51.046;7.010;2024-02-26T01:14:57;99091.34;;;9.52;67.42
3082;BME280;1551;51.046;7.010;2024-02-26T01:17:47;99094.03;;;9.49;67.68
3082;BME280;1551;51.046;7.010;2024-02-26T01:20:36;99102.47;;;9.51;68.36
3082;BME280;1551;51.046;7.010;2024-02-26T01:23:25;99094.91;;;9.48;67.75
3082;BME280;1551;51.046;7.010;2024-02-26T01:26:14;99092.50;;;9.44;69.20
3082;BME280;1551;51.046;7.010;2024-02-26T01:29:03;99087.53;;;9.39;68.98
3082;BME280;1551;51.046;7.010;2024-02-26T01:31:52;99080.97;;;9.31;70.20
3082;BME280;1551;51.046;7.010;2024-02-26T01:34:41;99086.13;;;9.29;71.04
3082;BME280;1551;51.046;7.010;2024-02-26T01:37:30;99079.50;;;9.24;72.01
3082;BME280;1551;51.046;7.010;2024-02-26T01:40:19;99086.38;;;9.22;72.09
3082;BME280;1551;51.046;7.010;2024-02-26T01:43:08;99086.41;;;9.20;72.53
3082;BME280;1551;51.046;7.010;2024-02-26T01:45:58;99083.09;;;9.17;73.41
3082;BME280;1551;51.046;7.010;2024-02-26T01:48:47;99087.44;;;9.15;73.66
3082;BME280;1551;51.046;7.010;2024-02-26T01:51:39;99078.34;;;9.06;74.11
3082;BME280;1551;51.046;7.010;2024-02-26T01:54:31;99078.53;;;9.00;74.78
3082;BME280;1551;51.046;7.010;2024-02-26T01:57:20;99079.41;;;8.99;75.46
3082;BME280;1551;51.046;7.010;2024-02-26T02:00:09;99072.75;;;8.93;75.81
3082;BME280;1551;51.046;7.010;2024-02-26T02:02:58;99068.56;;;8.91;75.60
3082;BME280;1551;51.046;7.010;2024-02-26T02:05:47;99067.84;;;8.87;76.11
3082;BME280;1551;51.046;7.010;2024-02-26T02:08:37;99067.19;;;8.81;77.24
3082;BME280;1551;51.046;7.010;2024-02-26T02:11:27;99066.53;;;8.74;77.49
3082;BME280;1551;51.046;7.010;2024-02-26T02:14:15;99075.25;;;8.66;77.88
3082;BME280;1551;51.046;7.010;2024-02-26T02:17:05;99079.50;;;8.67;78.64
3082;BME280;1551;51.046;7.010;2024-02-26T02:19:54;99075.13;;;8.70;79.02
3082;BME280;1551;51.046;7.010;2024-02-26T02:22:44;99077.03;;;8.64;79.05
3082;BME280;1551;51.046;7.010;2024-02-26T02:25:34;99074.47;;;8.64;79.28
3082;BME280;1551;51.046;7.010;2024-02-26T02:28:25;99066.03;;;8.62;79.75
3082;BME280;1551;51.046;7.010;2024-02-26T02:31:15;99076.19;;;8.63;79.67
3082;BME280;1551;51.046;7.010;2024-02-26T02:34:05;99065.19;;;8.61;80.59
3082;BME280;1551;51.046;7.010;2024-02-26T02:36:54;99065.16;;;8.63;80.63
3082;BME280;1551;51.046;7.010;2024-02-26T02:39:43;99049.31;;;8.52;80.87
3082;BME280;1551;51.046;7.010;2024-02-26T02:42:33;99071.19;;;8.60;80.92
3082;BME280;1551;51.046;7.010;2024-02-26T02:45:22;99042.78;;;8.43;80.76
3082;BME280;1551;51.046;7.010;2024-02-26T02:48:11;99064.41;;;8.59;81.54
3082;BME280;1551;51.046;7.010;2024-02-26T02:51:00;99066.09;;;8.60;81.47
3082;BME280;1551;51.046;7.010;2024-02-26T02:53:49;99066.03;;;8.62;81.41
3082;BME280;1551;51.046;7.010;2024-02-26T02:56:38;99059.22;;;8.62;81.10
3082;BME280;1551;51.046;7.010;2024-02-26T02:59:27;99056.72;;;8.61;81.45
3082;BME280;1551;51.046;7.010;2024-02-26T03:02:16;99057.56;;;8.61;82.24
3082;BME280;1551;51.046;7.010;2024-02-26T03:05:05;99061.91;;;8.58;81.58
3082;BME280;1551;51.046;7.010;2024-02-26T03:07:54;99061.94;;;8.56;82.54
3082;BME280;1551;51.046;7.010;2024-02-26T03:10:43;99050.91;;;8.56;82.73
3082;BME280;1551;51.046;7.010;2024-02-26T03:13:32;99048.25;;;8.60;82.38
3082;BME280;1551;51.046;7.010;2024-02-26T03:16:21;99053.44;;;8.56;82.71
3082;BME280;1551;51.046;7.010;2024-02-26T03:19:10;99055.22;;;8.54;82.38
3082;BME280;1551;51.046;7.010;2024-02-26T03:21:59;99057.75;;;8.55;82.13
3082;BME280;1551;51.046;7.010;2024-02-26T03:24:48;99059.53;;;8.52;82.93
3082;BME280;1551;51.046;7.010;2024-02-26T03:27:37;99056.06;;;8.54;82.59
3082;BME280;1551;51.046;7.010;2024-02-26T03:30:26;99054.41;;;8.53;82.89
3082;BME280;1551;51.046;7.010;2024-02-26T03:33:15;99053.50;;;8.54;82.41
3082;BME280;1551;51.046;7.010;2024-02-26T03:36:04;99060.28;;;8.55;83.74
3082;BME280;1551;51.046;7.010;2024-02-26T03:38:53;99054.41;;;8.53;83.34
3082;BME280;1551;51.046;7.010;2024-02-26T03:41:42;99057.75;;;8.54;83.45
3082;BME280;1551;51.046;7.010;2024-02-26T03:44:31;99060.31;;;8.54;84.10
3082;BME280;1551;51.046;7.010;2024-02-26T03:47:20;99053.56;;;8.51;84.31
3082;BME280;1551;51.046;7.010;2024-02-26T03:50:09;99053.63;;;8.50;83.85
3082;BME280;1551;51.046;7.010;2024-02-26T03:52:58;99051.94;;;8.50;83.83
3082;BME280;1551;51.046;7.010;2024-02-26T03:55:47;99052.78;;;8.49;84.17
3082;BME280;1551;51.046;7.010;2024-02-26T03:58:36;99051.94;;;8.49;84.36
3082;BME280;1551;51.046;7.010;2024-02-26T04:01:25;99056.13;;;8.51;84.84
3082;BME280;1551;51.046;7.010;2024-02-26T04:04:14;99056.97;;;8.52;84.96
3082;BME280;1551;51.046;7.010;2024-02-26T04:07:03;99062.00;;;8.55;85.24
3082;BME280;1551;51.046;7.010;2024-02-26T04:09:52;99051.84;;;8.53;85.71
3082;BME280;1551;51.046;7.010;2024-02-26T04:12:41;99067.88;;;8.57;85.83
3082;BME280;1551;51.046;7.010;2024-02-26T04:15:31;99071.28;;;8.57;85.76
3082;BME280;1551;51.046;7.010;2024-02-26T04:18:21;99078.13;;;8.55;85.55
3082;BME280;1551;51.046;7.010;2024-02-26T04:21:09;99074.56;;;8.61;86.43
3082;BME280;1551;51.046;7.010;2024-02-26T04:23:58;99078.78;;;8.62;85.52
3082;BME280;1551;51.046;7.010;2024-02-26T04:26:50;99077.88;;;8.64;85.61
3082;BME280;1551;51.046;7.010;2024-02-26T04:29:39;99092.97;;;8.70;85.75
3082;BME280;1551;51.046;7.010;2024-02-26T04:32:28;99084.50;;;8.70;85.80
3082;BME280;1551;51.046;7.010;2024-02-26T04:35:17;99092.97;;;8.72;86.13
3082;BME280;1551;51.046;7.010;2024-02-26T04:38:06;99100.56;;;8.73;86.11
3082;BME280;1551;51.046;7.010;2024-02-26T04:40:55;99102.31;;;8.71;85.16
3082;BME280;1551;51.046;7.010;2024-02-26T04:43:44;99111.75;;;8.68;85.97
3082;BME280;1551;51.046;7.010;2024-02-26T04:46:33;99121.25;;;8.63;85.99
3082;BME280;1551;51.046;7.010;2024-02-26T04:49:22;99115.28;;;8.64;86.34
3082;BME280;1551;51.046;7.010;2024-02-26T04:52:11;99119.47;;;8.66;86.34
3082;BME280;1551;51.046;7.010;2024-02-26T04:55:00;99120.19;;;8.71;86.35
3082;BME280;1551;51.046;7.010;2024-02-26T04:57:49;99122.75;;;8.70;86.73
3082;BME280;1551;51.046;7.010;2024-02-26T05:00:38;99129.59;;;8.68;86.49
3082;BME280;1551;51.046;7.010;2024-02-26T05:03:27;99125.28;;;8.70;87.13
3082;BME280;1551;51.046;7.010;2024-02-26T05:06:16;99130.44;;;8.68;87.56
3082;BME280;1551;51.046;7.010;2024-02-26T05:09:05;99130.44;;;8.68;87.82
3082;BME280;1551;51.046;7.010;2024-02-26T05:11:54;99122.84;;;8.67;87.32
3082;BME280;1551;51.046;7.010;2024-02-26T05:14:43;99112.78;;;8.62;87.39
3082;BME280;1551;51.046;7.010;2024-02-26T05:17:32;99123.69;;;8.67;87.67
3082;BME280;1551;51.046;7.010;2024-02-26T05:20:21;99116.19;;;8.61;88.63
3082;BME280;1551;51.046;7.010;2024-02-26T05:23:10;99117.03;;;8.62;88.63
3082;BME280;1551;51.046;7.010;2024-02-26T05:25:59;99114.50;;;8.62;89.14
3082;BME280;1551;51.046;7.010;2024-02-26T05:28:48;99117.97;;;8.59;89.09
3082;BME280;1551;51.046;7.010;2024-02-26T05:31:37;99123.78;;;8.64;89.33
3082;BME280;1551;51.046;7.010;2024-02-26T05:34:26;99122.38;;;8.53;89.57
3082;BME280;1551;51.046;7.010;2024-02-26T05:37:15;99125.78;;;8.53;90.14
3082;BME280;1551;51.046;7.010;2024-02-26T05:40:06;99122.28;;;8.56;89.93
3082;BME280;1551;51.046;7.010;2024-02-26T05:42:55;99126.66;;;8.52;89.67
3082;BME280;1551;51.046;7.010;2024-02-26T05:45:44;99130.78;;;8.56;90.48
3082;BME280;1551;51.046;7.010;2024-02-26T05:48:33;99134.09;;;8.60;89.77
3082;BME280;1551;51.046;7.010;2024-02-26T05:51:22;99130.91;;;8.52;89.83
3082;BME280;1551;51.046;7.010;2024-02-26T05:54:11;99150.38;;;8.54;90.69
3082;BME280;1551;51.046;7.010;2024-02-26T05:57:01;99152.78;;;8.60;91.08
3082;BME280;1551;51.046;7.010;2024-02-26T05:59:50;99155.28;;;8.62;91.40
3082;BME280;1551;51.046;7.010;2024-02-26T06:02:39;99159.53;;;8.61;91.24
3082;BME280;1551;51.046;7.010;2024-02-26T06:05:28;99157.84;;;8.62;91.30
3082;BME280;1551;51.046;7.010;2024-02-26T06:08:17;99162.88;;;8.63;90.40
3082;BME280;1551;51.046;7.010;2024-02-26T06:11:07;99157.84;;;8.62;91.41
3082;BME280;1551;51.046;7.010;2024-02-26T06:13:56;99163.72;;;8.64;91.89
3082;BME280;1551;51.046;7.010;2024-02-26T06:16:46;99166.34;;;8.61;91.29
3082;BME280;1551;51.046;7.010;2024-02-26T06:19:35;99170.63;;;8.60;92.00
3082;BME280;1551;51.046;7.010;2024-02-26T06:22:24;99172.28;;;8.61;92.01
3082;BME280;1551;51.046;7.010;2024-02-26T06:25:13;99173.09;;;8.63;91.69
3082;BME280;1551;51.046;7.010;2024-02-26T06:28:02;99179.94;;;8.61;91.31
3082;BME280;1551;51.046;7.010;2024-02-26T06:30:52;99179.22;;;8.56;91.69
3082;BME280;1551;51.046;7.010;2024-02-26T06:33:41;99186.00;;;8.57;91.13
3082;BME280;1551;51.046;7.010;2024-02-26T06:36:30;99187.03;;;8.50;91.78
3082;BME280;1551;51.046;7.010;2024-02-26T06:39:20;99191.28;;;8.50;91.09
3082;BME280;1551;51.046;7.010;2024-02-26T06:42:09;99194.81;;;8.44;91.02
3082;BME280;1551;51.046;7.010;2024-02-26T06:44:58;99195.00;;;8.38;90.91
3082;BME280;1551;51.046;7.010;2024-02-26T06:47:47;99200.94;;;8.39;91.61
3082;BME280;1551;51.046;7.010;2024-02-26T06:50:36;99195.75;;;8.42;91.31
3082;BME280;1551;51.046;7.010;2024-02-26T06:53:25;99208.69;;;8.34;91.61
3082;BME280;1551;51.046;7.010;2024-02-26T06:56:15;99208.69;;;8.34;91.79
3082;BME280;1551;51.046;7.010;2024-02-26T06:59:03;99202.94;;;8.26;91.41
3082;BME280;1551;51.046;7.010;2024-02-26T07:01:53;99214.84;;;8.24;91.54
3082;BME280;1551;51.046;7.010;2024-02-26T07:04:42;99212.38;;;8.21;91.81
3082;BME280;1551;51.046;7.010;2024-02-26T07:07:31;99214.00;;;8.23;92.22
3082;BME280;1551;51.046;7.010;2024-02-26T07:10:20;99216.59;;;8.22;91.86
3082;BME280;1551;51.046;7.010;2024-02-26T07:13:10;99220.78;;;8.24;92.28
3082;BME280;1551;51.046;7.010;2024-02-26T07:15:59;99223.41;;;8.21;92.66
3082;BME280;1551;51.046;7.010;2024-02-26T07:18:47;99222.66;;;8.18;92.55
3082;BME280;1551;51.046;7.010;2024-02-26T07:21:36;99232.03;;;8.16;92.36
3082;BME280;1551;51.046;7.010;2024-02-26T07:24:26;99230.44;;;8.12;92.58
3082;BME280;1551;51.046;7.010;2024-02-26T07:27:15;99226.03;;;8.18;92.53
3082;BME280;1551;51.046;7.010;2024-02-26T07:30:06;99225.28;;;8.15;92.26
3082;BME280;1551;51.046;7.010;2024-02-26T07:32:57;99228.69;;;8.14;92.54
3082;BME280;1551;51.046;7.010;2024-02-26T07:35:45;99233.94;;;8.08;93.03
3082;BME280;1551;51.046;7.010;2024-02-26T07:38:35;99232.13;;;8.11;92.61
3082;BME280;1551;51.046;7.010;2024-02-26T07:41:23;99243.16;;;8.13;92.75
3082;BME280;1551;51.046;7.010;2024-02-26T07:44:12;99244.75;;;8.17;92.79
3082;BME280;1551;51.046;7.010;2024-02-26T07:47:01;99243.97;;;8.14;92.87
3082;BME280;1551;51.046;7.010;2024-02-26T07:49:51;99242.38;;;8.10;92.52
3082;BME280;1551;51.046;7.010;2024-02-26T07:52:40;99246.56;;;8.12;92.99
3082;BME280;1551;51.046;7.010;2024-02-26T07:55:29;99255.13;;;8.10;93.02
3082;BME280;1551;51.046;7.010;2024-02-26T07:58:18;99253.44;;;8.09;92.67
3082;BME280;1551;51.046;7.010;2024-02-26T08:01:07;99252.63;;;8.07;92.98
3082;BME280;1551;51.046;7.010;2024-02-26T08:03:56;99261.91;;;8.09;93.10
3082;BME280;1551;51.046;7.010;2024-02-26T08:06:45;99263.59;;;8.10;93.68
3082;BME280;1551;51.046;7.010;2024-02-26T08:09:34;99267.00;;;8.09;93.43
3082;BME280;1551;51.046;7.010;2024-02-26T08:12:23;99272.09;;;8.09;93.05
3082;BME280;1551;51.046;7.010;2024-02-26T08:15:12;99273.84;;;8.07;93.11
3082;BME280;1551;51.046;7.010;2024-02-26T08:18:01;99272.94;;;8.10;93.08
3082;BME280;1551;51.046;7.010;2024-02-26T08:20:52;99272.00;;;8.14;93.43
3082;BME280;1551;51.046;7.010;2024-02-26T08:23:43;99280.63;;;8.08;93.30
3082;BME280;1551;51.046;7.010;2024-02-26T08:26:32;99285.69;;;8.10;93.34
3082;BME280;1551;51.046;7.010;2024-02-26T08:29:21;99286.53;;;8.09;93.76
3082;BME280;1551;51.046;7.010;2024-02-26T08:32:10;99292.59;;;8.06;93.04
3082;BME280;1551;51.046;7.010;2024-02-26T08:34:59;99296.75;;;8.09;93.62
3082;BME280;1551;51.046;7.010;2024-02-26T08:37:48;99293.38;;;8.08;93.91
3082;BME280;1551;51.046;7.010;2024-02-26T08:40:37;99293.28;;;8.13;94.09
3082;BME280;1551;51.046;7.010;2024-02-26T08:43:26;99299.16;;;8.15;93.67
3082;BME280;1551;51.046;7.010;2024-02-26T08:46:15;99308.41;;;8.20;93.70
3082;BME280;1551;51.046;7.010;2024-02-26T08:49:04;99305.84;;;8.20;94.22
3082;BME280;1551;51.046;7.010;2024-02-26T08:51:53;99300.88;;;8.14;94.00
3082;BME280;1551;51.046;7.010;2024-02-26T08:54:42;99296.66;;;8.13;93.79
3082;BME280;1551;51.046;7.010;2024-02-26T08:57:31;99300.81;;;8.16;94.22
3082;BME280;1551;51.046;7.010;2024-02-26T09:00:22;99309.25;;;8.19;93.85
3082;BME280;1551;51.046;7.010;2024-02-26T09:03:11;99307.47;;;8.23;93.88
3082;BME280;1551;51.046;7.010;2024-02-26T09:06:01;99312.66;;;8.20;93.97
3082;BME280;1551;51.046;7.010;2024-02-26T09:08:50;99308.31;;;8.23;94.45
3082;BME280;1551;51.046;7.010;2024-02-26T09:11:39;99320.16;;;8.26;94.46
3082;BME280;1551;51.046;7.010;2024-02-26T09:14:28;99317.50;;;8.32;94.76
3082;BME280;1551;51.046;7.010;2024-02-26T09:17:17;99322.59;;;8.32;94.27
3082;BME280;1551;51.046;7.010;2024-02-26T09:20:06;99321.75;;;8.32;94.29
3082;BME280;1551;51.046;7.010;2024-02-26T09:22:57;99326.00;;;8.31;93.80
3082;BME280;1551;51.046;7.010;2024-02-26T09:25:46;99330.38;;;8.26;93.89
3082;BME280;1551;51.046;7.010;2024-02-26T09:28:35;99340.50;;;8.29;94.38
3082;BME280;1551;51.046;7.010;2024-02-26T09:31:26;99339.69;;;8.27;94.09
3082;BME280;1551;51.046;7.010;2024-02-26T09:34:15;99354.03;;;8.31;94.57
3082;BME280;1551;51.046;7.010;2024-02-26T09:37:03;99354.09;;;8.28;93.46
3082;BME280;1551;51.046;7.010;2024-02-26T09:39:52;99355.72;;;8.32;93.50
3082;BME280;1551;51.046;7.010;2024-02-26T09:42:44;99366.78;;;8.31;93.94
3082;BME280;1551;51.046;7.010;2024-02-26T09:45:34;99362.47;;;8.35;93.32
3082;BME280;1551;51.046;7.010;2024-02-26T09:48:23;99362.38;;;8.39;93.66
3082;BME280;1551;51.046;7.010;2024-02-26T09:51:14;99375.81;;;8.46;93.73
3082;BME280;1551;51.046;7.010;2024-02-26T09:54:04;99377.41;;;8.50;93.62
3082;BME280;1551;51.046;7.010;2024-02-26T09:56:59;99375.81;;;8.44;93.29
3082;BME280;1551;51.046;7.010;2024-02-26T09:59:49;99380.13;;;8.42;92.88
3082;BME280;1551;51.046;7.010;2024-02-26T10:02:40;99383.47;;;8.46;93.21
3082;BME280;1551;51.046;7.010;2024-02-26T10:05:30;99381.75;;;8.46;92.93
3082;BME280;1551;51.046;7.010;2024-02-26T10:08:20;99385.16;;;8.45;92.76
3082;BME280;1551;51.046;7.010;2024-02-26T10:11:11;99396.03;;;8.53;93.35
3082;BME280;1551;51.046;7.010;2024-02-26T10:14:02;99391.75;;;8.55;92.69
3082;BME280;1551;51.046;7.010;2024-02-26T10:16:51;99402.94;;;8.48;93.08
3082;BME280;1551;51.046;7.010;2024-02-26T10:19:40;99390.19;;;8.48;92.82
3082;BME280;1551;51.046;7.010;2024-02-26T10:22:29;99402.06;;;8.49;92.19
3082;BME280;1551;51.046;7.010;2024-02-26T10:25:18;99407.06;;;8.54;92.95
3082;BME280;1551;51.046;7.010;2024-02-26T10:28:09;99412.94;;;8.57;92.55
3082;BME280;1551;51.046;7.010;2024-02-26T10:30:58;99410.31;;;8.60;92.74
3082;BME280;1551;51.046;7.010;2024-02-26T10:33:48;99416.97;;;8.67;93.05
3082;BME280;1551;51.046;7.010;2024-02-26T10:36:38;99406.75;;;8.67;92.62
3082;BME280;1551;51.046;7.010;2024-02-26T10:39:29;99421.06;;;8.73;92.90
3082;BME280;1551;51.046;7.010;2024-02-26T10:42:18;99417.59;;;8.75;92.64
3082;BME280;1551;51.046;7.010;2024-02-26T10:45:09;99418.56;;;8.71;92.65
3082;BME280;1551;51.046;7.010;2024-02-26T10:48:00;99424.47;;;8.73;92.61
3082;BME280;1551;51.046;7.010;2024-02-26T10:50:49;99422.66;;;8.77;92.10
3082;BME280;1551;51.046;7.010;2024-02-26T10:53:40;99430.81;;;8.92;92.72
3082;BME280;1551;51.046;7.010;2024-02-26T10:56:34;99430.72;;;8.97;92.59
3082;BME280;1551;51.046;7.010;2024-02-26T10:59:23;99444.09;;;9.05;92.21
3082;BME280;1551;51.046;7.010;2024-02-26T11:02:13;99444.88;;;9.09;91.66
3082;BME280;1551;51.046;7.010;2024-02-26T11:05:03;99438.03;;;9.11;92.02
3082;BME280;1551;51.046;7.010;2024-02-26T11:07:54;99443.69;;;9.22;92.21
3082;BME280;1551;51.046;7.010;2024-02-26T11:10:44;99449.72;;;9.19;91.50
3082;BME280;1551;51.046;7.010;2024-02-26T11:13:35;99447.22;;;9.18;91.56
3082;BME280;1551;51.046;7.010;2024-02-26T11:16:28;99451.53;;;9.16;91.97
3082;BME280;1551;51.046;7.010;2024-02-26T11:19:17;99449.88;;;9.13;92.03
3082;BME280;1551;51.046;7.010;2024-02-26T11:22:06;99455.78;;;9.15;91.73
3082;BME280;1551;51.046;7.010;2024-02-26T11:24:56;99458.94;;;9.25;91.23
3082;BME280;1551;51.046;7.010;2024-02-26T11:27:50;99456.47;;;9.22;91.69
3082;BME280;1551;51.046;7.010;2024-02-26T11:30:44;99464.78;;;9.30;91.43
3082;BME280;1551;51.046;7.010;2024-02-26T11:33:34;99462.13;;;9.34;92.02
3082;BME280;1551;51.046;7.010;2024-02-26T11:36:27;99463.03;;;9.32;91.24
3082;BME280;1551;51.046;7.010;2024-02-26T11:39:15;99468.97;;;9.32;91.13
3082;BME280;1551;51.046;7.010;2024-02-26T11:42:06;99467.94;;;9.39;91.13
3082;BME280;1551;51.046;7.010;2024-02-26T11:44:56;99468.97;;;9.32;91.01
3082;BME280;1551;51.046;7.010;2024-02-26T11:47:56;99466.25;;;9.40;90.95
3082;BME280;1551;51.046;7.010;2024-02-26T11:51:04;99475.38;;;9.48;90.83
3082;BME280;1551;51.046;7.010;2024-02-26T11:53:54;99481.22;;;9.53;91.64
3082;BME280;1551;51.046;7.010;2024-02-26T11:56:46;99477.59;;;9.62;90.76
3082;BME280;1551;51.046;7.010;2024-02-26T11:59:38;99470.84;;;9.59;91.41
3082;BME280;1551;51.046;7.010;2024-02-26T12:02:41;99482.50;;;9.69;91.16
3082;BME280;1551;51.046;7.010;2024-02-26T12:05:32;99465.91;;;9.53;90.67
3082;BME280;1551;51.046;7.010;2024-02-26T12:08:21;99489.31;;;9.69;90.17
3082;BME280;1551;51.046;7.010;2024-02-26T12:11:15;99485.66;;;9.79;90.73
3082;BME280;1551;51.046;7.010;2024-02-26T12:14:09;99488.16;;;9.81;90.48
3082;BME280;1551;51.046;7.010;2024-02-26T12:16:58;99490.47;;;9.90;90.50
3082;BME280;1551;51.046;7.010;2024-02-26T12:19:47;99497.31;;;9.89;89.22
3082;BME280;1551;51.046;7.010;2024-02-26T12:22:38;99488.63;;;9.95;89.76
3082;BME280;1551;51.046;7.010;2024-02-26T12:25:29;99496.66;;;10.15;89.84
3082;BME280;1551;51.046;7.010;2024-02-26T12:28:19;99504.13;;;10.21;89.61
3082;BME280;1551;51.046;7.010;2024-02-26T12:31:07;99514.41;;;10.19;89.51
3082;BME280;1551;51.046;7.010;2024-02-26T12:33:56;99517.47;;;10.32;89.35
3082;BME280;1551;51.046;7.010;2024-02-26T12:36:45;99522.69;;;10.29;89.53
3082;BME280;1551;51.046;7.010;2024-02-26T12:39:34;99530.25;;;10.32;89.46
3082;BME280;1551;51.046;7.010;2024-02-26T12:42:23;99532.84;;;10.30;88.96
3082;BME280;1551;51.046;7.010;2024-02-26T12:45:13;99542.22;;;10.30;89.06
3082;BME280;1551;51.046;7.010;2024-02-26T12:48:04;99540.59;;;10.27;88.95
3082;BME280;1551;51.046;7.010;2024-02-26T12:50:54;99548.72;;;10.42;88.61
3082;BME280;1551;51.046;7.010;2024-02-26T12:53:45;99557.25;;;10.42;88.65
3082;BME280;1551;51.046;7.010;2024-02-26T12:56:34;99560.91;;;10.33;88.92
3082;BME280;1551;51.046;7.010;2024-02-26T12:59:23;99571.59;;;10.17;88.77
3082;BME280;1551;51.046;7.010;2024-02-26T13:02:13;99567.53;;;10.07;88.90
3082;BME280;1551;51.046;7.010;2024-02-26T13:05:04;99559.72;;;10.14;88.70
3082;BME280;1551;51.046;7.010;2024-02-26T13:07:55;99569.97;;;10.13;87.67
3082;BME280;1551;51.046;7.010;2024-02-26T13:10:46;99573.34;;;10.15;88.41
3082;BME280;1551;51.046;7.010;2024-02-26T13:13:35;99580.88;;;10.19;87.92
3082;BME280;1551;51.046;7.010;2024-02-26T13:16:25;99586.13;;;10.15;87.75
3082;BME280;1551;51.046;7.010;2024-02-26T13:19:14;99579.13;;;10.21;88.24
3082;BME280;1551;51.046;7.010;2024-02-26T13:22:06;99584.78;;;10.32;87.74
3082;BME280;1551;51.046;7.010;2024-02-26T13:24:56;99582.47;;;10.23;86.34
3082;BME280;1551;51.046;7.010;2024-02-26T13:27:46;99596.00;;;10.28;87.01
3082;BME280;1551;51.046;7.010;2024-02-26T13:30:35;99602.88;;;10.26;86.90
3082;BME280;1551;51.046;7.010;2024-02-26T13:33:25;99580.78;;;10.22;86.98
3082;BME280;1551;51.046;7.010;2024-02-26T13:36:14;99600.31;;;10.26;86.79
3082;BME280;1551;51.046;7.010;2024-02-26T13:39:03;99602.81;;;10.28;87.48
3082;BME280;1551;51.046;7.010;2024-02-26T13:41:54;99599.47;;;10.26;87.58
3082;BME280;1551;51.046;7.010;2024-02-26T13:44:43;99601.03;;;10.30;87.22
3082;BME280;1551;51.046;7.010;2024-02-26T13:47:33;99602.88;;;10.25;87.06
3082;BME280;1551;51.046;7.010;2024-02-26T13:50:22;99606.22;;;10.27;87.13
3082;BME280;1551;51.046;7.010;2024-02-26T13:53:12;99609.63;;;10.27;87.19
3082;BME280;1551;51.046;7.010;2024-02-26T13:56:02;99618.09;;;10.31;86.94
3082;BME280;1551;51.046;7.010;2024-02-26T13:58:54;99623.88;;;10.38;87.31
3082;BME280;1551;51.046;7.010;2024-02-26T14:01:43;99623.88;;;10.38;87.45
3082;BME280;1551;51.046;7.010;2024-02-26T14:04:32;99605.38;;;10.28;86.82
3082;BME280;1551;51.046;7.010;2024-02-26T14:07:21;99625.63;;;10.35;87.08
3082;BME280;1551;51.046;7.010;2024-02-26T14:10:12;99628.19;;;10.35;87.81
3082;BME280;1551;51.046;7.010;2024-02-26T14:13:01;99630.66;;;10.38;87.97
3082;BME280;1551;51.046;7.010;2024-02-26T14:15:50;99634.66;;;10.49;88.34
3082;BME280;1551;51.046;7.010;2024-02-26T14:18:39;99617.78;;;10.42;87.68
3082;BME280;1551;51.046;7.010;2024-02-26T14:21:29;99637.81;;;10.58;87.79
3082;BME280;1551;51.046;7.010;2024-02-26T14:24:21;99629.97;;;10.64;87.84
3082;BME280;1551;51.046;7.010;2024-02-26T14:27:12;99633.53;;;10.59;86.98
3082;BME280;1551;51.046;7.010;2024-02-26T14:30:05;99639.38;;;10.62;87.10
3082;BME280;1551;51.046;7.010;2024-02-26T14:32:54;99625.22;;;10.51;86.09
3082;BME280;1551;51.046;7.010;2024-02-26T14:35:43;99637.88;;;10.55;85.86
3082;BME280;1551;51.046;7.010;2024-02-26T14:38:33;99645.44;;;10.60;85.44
3082;BME280;1551;51.046;7.010;2024-02-26T14:41:22;99641.94;;;10.64;85.15
3082;BME280;1551;51.046;7.010;2024-02-26T14:44:11;99659.53;;;10.74;84.84
3082;BME280;1551;51.046;7.010;2024-02-26T14:47:01;99667.66;;;10.88;84.77
3082;BME280;1551;51.046;7.010;2024-02-26T14:49:50;99662.66;;;10.85;84.88
3082;BME280;1551;51.046;7.010;2024-02-26T14:52:40;99661.34;;;10.71;84.19
3082;BME280;1551;51.046;7.010;2024-02-26T14:55:29;99667.53;;;10.62;84.49
3082;BME280;1551;51.046;7.010;2024-02-26T14:58:18;99672.75;;;10.59;84.24
3082;BME280;1551;51.046;7.010;2024-02-26T15:01:08;99676.06;;;10.63;84.60
3082;BME280;1551;51.046;7.010;2024-02-26T15:03:57;99680.25;;;10.65;86.08
3082;BME280;1551;51.046;7.010;2024-02-26T15:06:46;99686.28;;;10.63;85.40
3082;BME280;1551;51.046;7.010;2024-02-26T15:09:35;99688.81;;;10.64;86.58
3082;BME280;1551;51.046;7.010;2024-02-26T15:12:26;99692.13;;;10.68;86.51
3082;BME280;1551;51.046;7.010;2024-02-26T15:15:21;99703.16;;;10.70;87.06
3082;BME280;1551;51.046;7.010;2024-02-26T15:18:10;99702.28;;;10.71;86.90
3082;BME280;1551;51.046;7.010;2024-02-26T15:21:04;99708.41;;;10.65;86.31
3082;BME280;1551;51.046;7.010;2024-02-26T15:23:53;99699.19;;;10.58;86.24
3082;BME280;1551;51.046;7.010;2024-02-26T15:26:43;99706.16;;;10.53;86.14
3082;BME280;1551;51.046;7.010;2024-02-26T15:29:32;99713.09;;;10.50;86.58
3082;BME280;1551;51.046;7.010;2024-02-26T15:32:21;99712.22;;;10.49;86.74